createdAt,value
2022-08-05T00:00:50.187Z,95373.56
2022-08-05T00:02:50.816Z,95365.72
2022-08-05T00:04:55.572Z,95370.59
2022-08-05T00:06:55.627Z,95374.88
2022-08-05T00:08:54.017Z,95376.44
2022-08-05T00:10:52.215Z,95372.28
2022-08-05T00:12:56.791Z,95372.72
2022-08-05T00:14:56.113Z,95373.03
2022-08-05T00:16:54.438Z,95361.69
2022-08-05T00:18:52.639Z,95370.53
2022-08-05T00:20:51.918Z,95368.63
2022-08-05T00:22:57.434Z,95367.41
2022-08-05T00:25:00.514Z,95367.41
2022-08-05T00:26:59.842Z,95357.84
2022-08-05T00:28:58.841Z,95357.56
2022-08-05T00:30:57.135Z,95359.16
2022-08-05T00:33:02.700Z,95360.53
2022-08-05T00:35:06.932Z,95354.06
2022-08-05T00:37:12.461Z,95349.84
2022-08-05T00:39:14.308Z,95357.88
2022-08-05T00:41:12.823Z,95349.97
2022-08-05T00:43:15.386Z,95351.50
2022-08-05T00:45:13.719Z,95352.34
2022-08-05T00:47:12.001Z,95348.47
2022-08-05T00:49:10.494Z,95350.31
2022-08-05T00:51:50.443Z,95351.88
2022-08-05T00:54:00.032Z,95355.56
2022-08-05T00:55:52.889Z,95357.50
2022-08-05T00:57:58.549Z,95350.78
2022-08-05T00:59:57.495Z,95359.63
2022-08-05T01:01:55.788Z,95356.97
2022-08-05T01:03:54.306Z,95353.84
2022-08-05T01:05:54.482Z,95349.50
2022-08-05T01:08:31.590Z,95348.50
2022-08-05T01:10:14.983Z,95353.13
2022-08-05T01:12:19.173Z,95356.13
2022-08-05T01:14:27.781Z,95356.47
2022-08-05T01:16:31.908Z,95351.69
2022-08-05T01:18:35.416Z,95350.50
2022-08-05T01:20:42.559Z,95350.16
2022-08-05T01:22:57.512Z,95350.03
2022-08-05T01:25:40.152Z,95356.19
2022-08-05T01:28:12.163Z,95362.59
2022-08-05T01:30:17.724Z,95360.19
2022-08-05T01:32:21.983Z,95365.75
2022-08-05T01:34:26.784Z,95366.66
2022-08-05T01:36:30.790Z,95353.16
2022-08-05T01:38:30.758Z,95366.00
2022-08-05T01:40:32.163Z,95359.38
2022-08-05T01:42:32.958Z,95362.97
2022-08-05T01:44:35.264Z,95359.84
2022-08-05T01:46:42.511Z,95358.72
2022-08-05T01:48:49.722Z,95364.16
2022-08-05T01:50:51.101Z,95365.53
2022-08-05T01:52:51.611Z,95360.47
2022-08-05T01:54:53.851Z,95374.22
2022-08-05T01:58:12.357Z,95365.44
2022-08-05T01:59:17.806Z,95367.47
2022-08-05T02:01:25.333Z,95374.00
2022-08-05T02:03:31.991Z,95371.31
2022-08-05T02:05:34.382Z,95366.53
2022-08-05T02:07:36.346Z,95366.06
2022-08-05T02:09:34.776Z,95371.75
2022-08-05T02:11:54.112Z,95364.81
2022-08-05T02:14:01.676Z,95363.03
2022-08-05T02:16:06.201Z,95364.88
2022-08-05T02:18:27.979Z,95355.25
2022-08-05T02:20:31.832Z,95365.09
2022-08-05T02:22:43.239Z,95366.63
2022-08-05T02:24:48.146Z,95369.84
2022-08-05T02:26:54.717Z,95360.16
2022-08-05T02:28:56.211Z,95360.84
2022-08-05T02:31:01.685Z,95356.69
2022-08-05T02:33:01.474Z,95358.16
2022-08-05T02:35:13.674Z,95349.38
2022-08-05T02:37:14.261Z,95368.34
2022-08-05T02:39:18.447Z,95363.16
2022-08-05T02:41:22.999Z,95357.69
2022-08-05T02:43:23.093Z,95362.75
2022-08-05T02:45:23.852Z,95364.09
2022-08-05T02:47:23.995Z,95352.78
2022-08-05T02:49:23.275Z,95361.78
2022-08-05T02:51:28.244Z,95359.44
2022-08-05T02:53:43.557Z,95355.47
2022-08-05T02:55:54.065Z,95362.44
2022-08-05T02:58:19.637Z,95352.13
2022-08-05T03:00:13.895Z,95365.41
2022-08-05T03:02:13.724Z,95356.78
2022-08-05T03:04:15.728Z,95363.06
2022-08-05T03:06:54.726Z,95357.75
2022-08-05T03:08:35.911Z,95364.53
2022-08-05T03:10:34.140Z,95365.00
2022-08-05T03:12:33.178Z,95354.00
2022-08-05T03:14:31.558Z,95360.84
2022-08-05T03:16:29.825Z,95356.69
2022-08-05T03:18:30.749Z,95369.69
2022-08-05T03:20:29.078Z,95368.38
2022-08-05T03:22:32.122Z,95368.69
2022-08-05T03:24:32.488Z,95369.56
2022-08-05T03:26:32.776Z,95368.25
2022-08-05T03:28:31.535Z,95366.75
2022-08-05T03:30:34.197Z,95368.00
2022-08-05T03:32:33.028Z,95365.19
2022-08-05T03:34:31.963Z,95365.72
2022-08-05T03:36:30.814Z,95366.75
2022-08-05T03:38:33.334Z,95365.44
2022-08-05T03:40:41.398Z,95369.13
2022-08-05T03:42:52.482Z,95362.34
2022-08-05T03:44:51.108Z,95367.66
2022-08-05T03:46:50.142Z,95374.81
2022-08-05T03:48:48.420Z,95369.50
2022-08-05T03:50:52.204Z,95368.09
2022-08-05T03:55:53.358Z,95361.13
2022-08-05T03:56:04.607Z,95360.66
2022-08-05T03:57:46.556Z,95374.34
2022-08-05T03:59:54.791Z,95367.03
2022-08-05T04:01:58.625Z,95371.38
2022-08-05T04:04:09.835Z,95364.13
2022-08-05T04:06:09.721Z,95364.06
2022-08-05T04:08:14.346Z,95359.53
2022-08-05T04:10:33.292Z,95361.81
2022-08-05T04:14:35.813Z,95363.72
2022-08-05T04:16:35.718Z,95368.00
2022-08-05T04:18:34.665Z,95366.22
2022-08-05T04:20:32.973Z,95362.03
2022-08-05T04:22:31.919Z,95348.16
2022-08-05T04:24:30.178Z,95356.34
2022-08-05T04:26:32.455Z,95353.50
2022-08-05T04:28:31.830Z,95350.41
2022-08-05T04:30:31.594Z,95359.28
2022-08-05T04:32:31.179Z,95348.88
2022-08-05T04:34:35.139Z,95358.47
2022-08-05T04:36:46.006Z,95357.88
2022-08-05T04:38:51.026Z,95360.69
2022-08-05T04:40:50.625Z,95349.81
2022-08-05T04:42:49.389Z,95350.22
2022-08-05T04:44:47.665Z,95355.91
2022-08-05T04:46:47.436Z,95352.06
2022-08-05T04:48:47.027Z,95351.84
2022-08-05T04:51:01.615Z,95350.84
2022-08-05T04:53:01.441Z,95356.00
2022-08-05T04:54:59.664Z,95348.16
2022-08-05T04:57:12.413Z,95354.56
2022-08-05T04:59:21.466Z,95348.75
2022-08-05T05:02:06.263Z,95350.03
2022-08-05T05:03:48.556Z,95355.31
2022-08-05T05:06:39.617Z,95351.56
2022-08-05T05:08:14.415Z,95346.69
2022-08-05T05:10:25.939Z,95345.06
2022-08-05T05:12:27.921Z,95351.75
2022-08-05T05:14:28.204Z,95349.97
2022-08-05T05:16:30.570Z,95348.78
2022-08-05T05:18:33.341Z,95339.69
2022-08-05T05:20:37.171Z,95346.91
2022-08-05T05:22:40.805Z,95351.47
2022-08-05T05:24:58.564Z,95341.31
2022-08-05T05:26:57.972Z,95343.19
2022-08-05T05:28:57.664Z,95341.34
2022-08-05T05:30:55.938Z,95349.78
2022-08-05T05:32:55.104Z,95345.63
2022-08-05T05:34:53.424Z,95342.31
2022-08-05T05:36:53.513Z,95344.84
2022-08-05T05:38:51.900Z,95347.31
2022-08-05T05:40:51.561Z,95338.22
2022-08-05T05:42:50.974Z,95342.13
2022-08-05T05:44:50.071Z,95334.44
2022-08-05T05:46:48.313Z,95346.34
2022-08-05T05:48:49.347Z,95349.69
2022-08-05T05:50:47.749Z,95349.22
2022-08-05T05:52:48.623Z,95346.03
2022-08-05T05:54:50.162Z,95348.47
2022-08-05T05:56:49.473Z,95340.50
2022-08-05T05:58:48.994Z,95340.50
2022-08-05T06:00:48.730Z,95347.91
2022-08-05T06:02:48.698Z,95346.22
2022-08-05T06:04:49.323Z,95340.25
2022-08-05T06:06:49.146Z,95343.47
2022-08-05T06:08:49.352Z,95342.47
2022-08-05T06:10:49.239Z,95345.50
2022-08-05T06:13:15.850Z,95337.19
2022-08-05T06:15:24.036Z,95351.44
2022-08-05T06:17:24.613Z,95351.75
2022-08-05T06:19:34.215Z,95352.38
2022-08-05T06:21:36.602Z,95349.91
2022-08-05T06:23:44.120Z,95345.31
2022-08-05T06:26:12.621Z,95351.75
2022-08-05T06:28:10.500Z,95352.22
2022-08-05T06:30:19.910Z,95346.41
2022-08-05T06:32:25.674Z,95347.25
2022-08-05T06:34:27.743Z,95344.47
2022-08-05T06:36:26.183Z,95347.66
2022-08-05T06:38:36.603Z,95345.81
2022-08-05T06:40:35.327Z,95342.56
2022-08-05T06:42:42.187Z,95344.06
2022-08-05T06:44:40.607Z,95338.84
2022-08-05T06:46:40.508Z,95338.34
2022-08-05T06:48:55.998Z,95338.97
2022-08-05T06:50:54.979Z,95333.69
2022-08-05T06:53:03.536Z,95336.19
2022-08-05T06:55:10.415Z,95334.63
2022-08-05T06:57:56.856Z,95335.94
2022-08-05T06:59:28.810Z,95327.56
2022-08-05T07:01:40.466Z,95338.91
2022-08-05T07:03:39.090Z,95335.41
2022-08-05T07:05:41.119Z,95337.81
2022-08-05T07:07:43.280Z,95339.47
2022-08-05T07:09:43.265Z,95330.13
2022-08-05T07:11:41.785Z,95331.34
2022-08-05T07:13:59.992Z,95328.81
2022-08-05T07:18:00.539Z,95333.16
2022-08-05T07:18:32.263Z,95330.47
2022-08-05T07:20:33.393Z,95330.47
2022-08-05T07:22:32.460Z,95336.69
2022-08-05T07:24:30.627Z,95338.00
2022-08-05T07:26:29.958Z,95334.72
2022-08-05T07:28:29.441Z,95331.03
2022-08-05T07:30:32.281Z,95335.41
2022-08-05T07:32:36.531Z,95328.50
2022-08-05T07:34:37.213Z,95333.50
2022-08-05T07:36:40.707Z,95338.75
2022-08-05T07:38:42.626Z,95331.53
2022-08-05T07:40:44.500Z,95325.72
2022-08-05T07:42:44.062Z,95323.97
2022-08-05T07:44:42.844Z,95323.69
2022-08-05T07:46:48.246Z,95326.47
2022-08-05T07:49:02.628Z,95326.00
2022-08-05T07:51:03.003Z,95325.16
2022-08-05T07:53:07.094Z,95323.06
2022-08-05T07:55:43.866Z,95318.59
2022-08-05T07:57:58.924Z,95320.19
2022-08-05T07:59:43.233Z,95321.94
2022-08-05T08:01:52.112Z,95322.56
2022-08-05T08:03:57.229Z,95324.88
2022-08-05T08:05:55.918Z,95319.88
2022-08-05T08:08:00.295Z,95319.09
2022-08-05T08:09:58.883Z,95321.63
2022-08-05T08:12:00.095Z,95308.50
2022-08-05T08:14:05.133Z,95314.69
2022-08-05T08:16:34.834Z,95311.84
2022-08-05T08:18:23.124Z,95313.56
2022-08-05T08:21:00.186Z,95313.81
2022-08-05T08:22:41.960Z,95319.84
2022-08-05T08:24:51.471Z,95319.63
2022-08-05T08:26:50.979Z,95312.00
2022-08-05T08:28:59.563Z,95309.91
2022-08-05T08:31:04.406Z,95307.44
2022-08-05T08:33:08.490Z,95308.72
2022-08-05T08:35:13.615Z,95307.88
2022-08-05T08:37:13.345Z,95299.50
2022-08-05T08:39:18.321Z,95305.78
2022-08-05T08:41:18.453Z,95304.84
2022-08-05T08:44:56.503Z,95300.31
2022-08-05T08:45:39.264Z,95300.00
2022-08-05T08:48:05.811Z,95298.31
2022-08-05T08:50:22.566Z,95296.56
2022-08-05T08:52:25.587Z,95296.88
2022-08-05T08:54:27.193Z,95303.38
2022-08-05T08:56:27.205Z,95293.59
2022-08-05T08:58:37.204Z,95289.34
2022-08-05T09:00:44.394Z,95293.34
2022-08-05T09:02:43.501Z,95290.78
2022-08-05T09:04:58.312Z,95289.84
2022-08-05T09:07:19.360Z,95284.03
2022-08-05T09:09:34.855Z,95281.16
2022-08-05T09:11:50.872Z,95274.16
2022-08-05T09:14:09.214Z,95267.69
2022-08-05T09:16:16.756Z,95263.84
2022-08-05T09:18:15.745Z,95268.53
2022-08-05T09:20:36.644Z,95257.28
2022-08-05T09:23:09.372Z,95260.06
2022-08-05T09:25:13.876Z,95255.53
2022-08-05T09:28:05.788Z,95253.59
2022-08-05T09:29:52.504Z,95257.25
2022-08-05T09:32:42.125Z,95247.53
2022-08-05T09:34:21.631Z,95252.13
2022-08-05T09:36:27.810Z,95241.91
2022-08-05T09:38:32.081Z,95246.34
2022-08-05T09:40:33.216Z,95245.84
2022-08-05T09:42:41.438Z,95242.72
2022-08-05T09:44:42.052Z,95237.88
2022-08-05T09:46:50.117Z,95232.53
2022-08-05T09:48:55.467Z,95232.06
2022-08-05T09:51:15.219Z,95231.63
2022-08-05T09:53:22.959Z,95236.16
2022-08-05T09:55:56.774Z,95232.88
2022-08-05T09:57:47.691Z,95231.56
2022-08-05T09:59:49.240Z,95230.53
2022-08-05T10:01:48.151Z,95229.31
2022-08-05T10:04:00.212Z,95224.13
2022-08-05T10:06:07.625Z,95225.69
2022-08-05T10:08:35.741Z,95220.28
2022-08-05T10:10:37.571Z,95217.09
2022-08-05T10:12:49.872Z,95216.88
2022-08-05T10:14:54.364Z,95224.53
2022-08-05T10:16:56.311Z,95215.59
2022-08-05T10:18:55.642Z,95219.47
2022-08-05T10:20:57.862Z,95208.28
2022-08-05T10:23:00.480Z,95213.53
2022-08-05T10:24:59.126Z,95217.31
2022-08-05T10:27:01.225Z,95213.06
2022-08-05T10:28:59.722Z,95213.00
2022-08-05T10:32:50.604Z,95206.13
2022-08-05T10:33:19.548Z,95209.09
2022-08-05T10:35:18.756Z,95205.03
2022-08-05T10:37:17.779Z,95212.81
2022-08-05T10:39:24.948Z,95206.22
2022-08-05T10:41:44.824Z,95195.19
2022-08-05T10:43:52.132Z,95192.00
2022-08-05T10:46:06.792Z,95196.47
2022-08-05T10:48:39.521Z,95189.00
2022-08-05T10:51:00.569Z,95193.38
2022-08-05T10:52:59.938Z,95193.22
2022-08-05T10:55:05.754Z,95188.31
2022-08-05T10:57:04.298Z,95186.47
2022-08-05T10:59:12.085Z,95188.66
2022-08-05T11:01:55.644Z,95178.09
2022-08-05T11:04:08.882Z,95184.94
2022-08-05T11:06:15.108Z,95185.94
2022-08-05T11:08:36.874Z,95185.19
2022-08-05T11:10:34.986Z,95174.69
2022-08-05T11:12:50.365Z,95181.25
2022-08-05T11:15:19.489Z,95171.44
2022-08-05T11:17:58.675Z,95168.72
2022-08-05T11:20:17.659Z,95168.44
2022-08-05T11:22:42.993Z,95170.09
2022-08-05T11:24:50.564Z,95163.56
2022-08-05T11:27:51.421Z,95160.00
2022-08-05T11:30:01.205Z,95164.91
2022-08-05T11:32:26.503Z,95158.63
2022-08-05T11:34:38.352Z,95168.44
2022-08-05T11:36:53.758Z,95154.78
2022-08-05T11:38:54.676Z,95151.81
2022-08-05T11:41:13.865Z,95158.88
2022-08-05T11:44:06.534Z,95147.22
2022-08-05T11:46:15.212Z,95151.94
2022-08-05T11:48:11.613Z,95151.09
2022-08-05T11:50:10.467Z,95141.78
2022-08-05T11:52:14.743Z,95149.34
2022-08-05T11:54:15.787Z,95150.63
2022-08-05T11:56:14.844Z,95148.38
2022-08-05T11:58:13.464Z,95147.63
2022-08-05T12:00:28.921Z,95150.75
2022-08-05T12:02:32.937Z,95151.31
2022-08-05T12:04:40.409Z,95150.28
2022-08-05T12:06:48.774Z,95149.63
2022-08-05T12:08:51.742Z,95144.63
2022-08-05T12:10:52.586Z,95144.44
2022-08-05T12:12:58.334Z,95143.63
2022-08-05T12:14:58.462Z,95137.69
2022-08-05T12:16:57.384Z,95127.84
2022-08-05T12:18:57.456Z,95125.66
2022-08-05T12:20:56.236Z,95129.69
2022-08-05T12:23:10.053Z,95125.00
2022-08-05T12:25:14.320Z,95124.47
2022-08-05T12:27:32.468Z,95123.38
2022-08-05T12:29:38.871Z,95121.13
2022-08-05T12:31:45.970Z,95125.28
2022-08-05T12:33:49.152Z,95122.94
2022-08-05T12:35:48.498Z,95120.78
2022-08-05T12:37:48.471Z,95115.84
2022-08-05T12:39:53.797Z,95123.47
2022-08-05T12:41:59.862Z,95124.16
2022-08-05T12:44:02.126Z,95116.97
2022-08-05T12:46:01.222Z,95116.69
2022-08-05T12:48:17.223Z,95117.81
2022-08-05T12:50:19.775Z,95107.47
2022-08-05T12:52:23.950Z,95106.81
2022-08-05T12:54:28.190Z,95108.72
2022-08-05T12:56:35.189Z,95108.44
2022-08-05T12:58:48.313Z,95097.69
2022-08-05T13:02:01.084Z,95091.69
2022-08-05T13:03:13.642Z,95103.69
2022-08-05T13:05:14.552Z,95105.31
2022-08-05T13:07:15.919Z,95093.53
2022-08-05T13:09:28.606Z,95096.34
2022-08-05T13:12:03.286Z,95093.44
2022-08-05T13:14:06.216Z,95090.44
2022-08-05T13:16:15.317Z,95084.38
2022-08-05T13:18:19.875Z,95089.09
2022-08-05T13:20:23.436Z,95088.25
2022-08-05T13:22:28.547Z,95084.72
2022-08-05T13:24:51.103Z,95079.28
2022-08-05T13:26:50.644Z,95083.09
2022-08-05T13:28:49.138Z,95082.78
2022-08-05T13:30:57.222Z,95076.22
2022-08-05T13:32:56.427Z,95079.53
2022-08-05T13:34:55.266Z,95090.16
2022-08-05T13:36:53.938Z,95070.53
2022-08-05T13:38:52.394Z,95068.63
2022-08-05T13:40:52.124Z,95073.84
2022-08-05T13:42:50.763Z,95066.28
2022-08-05T13:44:54.322Z,95076.31
2022-08-05T13:47:02.568Z,95073.84
2022-08-05T13:49:10.161Z,95071.41
2022-08-05T13:51:11.404Z,95071.72
2022-08-05T13:53:15.804Z,95065.16
2022-08-05T13:55:41.178Z,95062.97
2022-08-05T13:57:51.031Z,95064.66
2022-08-05T13:59:57.578Z,95061.13
2022-08-05T14:02:10.586Z,95062.47
2022-08-05T14:04:36.255Z,95055.97
2022-08-05T14:06:34.974Z,95067.84
2022-08-05T14:08:35.526Z,95052.56
2022-08-05T14:10:35.498Z,95053.38
2022-08-05T14:12:35.874Z,95054.44
2022-08-05T14:14:34.140Z,95054.47
2022-08-05T14:16:32.423Z,95051.19
2022-08-05T14:18:32.216Z,95049.31
2022-08-05T14:20:30.797Z,95050.94
2022-08-05T14:22:30.482Z,95055.78
2022-08-05T14:24:32.806Z,95043.84
2022-08-05T14:26:36.892Z,95043.75
2022-08-05T14:28:52.174Z,95046.81
2022-08-05T14:30:50.783Z,95044.91
2022-08-05T14:32:52.343Z,95039.69
2022-08-05T14:34:52.216Z,95036.69
2022-08-05T14:36:50.485Z,95037.78
2022-08-05T14:38:49.338Z,95035.34
2022-08-05T14:40:48.256Z,95039.97
2022-08-05T14:42:46.492Z,95034.03
2022-08-05T14:44:47.338Z,95029.34
2022-08-05T14:46:45.801Z,95023.91
2022-08-05T14:48:44.760Z,95030.16
2022-08-05T14:50:49.898Z,95026.06
2022-08-05T14:52:57.663Z,95024.69
2022-08-05T14:54:57.317Z,95027.09
2022-08-05T14:57:00.515Z,95026.03
2022-08-05T14:59:04.151Z,95022.75
2022-08-05T15:01:05.047Z,95023.53
2022-08-05T15:03:15.118Z,95025.38
2022-08-05T15:05:14.753Z,95029.41
2022-08-05T15:08:09.026Z,95018.47
2022-08-05T15:09:52.876Z,95020.56
2022-08-05T15:11:55.319Z,95018.38
2022-08-05T15:13:54.335Z,95025.69
2022-08-05T15:15:55.723Z,95019.13
2022-08-05T15:17:58.123Z,95014.75
2022-08-05T15:20:02.722Z,95013.38
2022-08-05T15:22:02.108Z,95005.47
2022-08-05T15:24:01.981Z,95015.22
2022-08-05T15:26:03.005Z,95013.34
2022-08-05T15:28:01.941Z,95012.22
2022-08-05T15:30:00.175Z,95012.50
2022-08-05T15:32:03.153Z,95004.34
2022-08-05T15:34:18.790Z,95004.63
2022-08-05T15:36:24.446Z,95005.47
2022-08-05T15:38:34.306Z,94999.75
2022-08-05T15:41:02.880Z,94996.44
2022-08-05T15:43:00.479Z,94992.63
2022-08-05T15:45:11.442Z,94993.72
2022-08-05T15:47:09.795Z,95001.31
2022-08-05T15:49:10.301Z,94997.69
2022-08-05T15:51:09.814Z,94996.88
2022-08-05T15:53:09.766Z,94987.34
2022-08-05T15:55:16.129Z,94987.59
2022-08-05T15:57:16.195Z,94995.81
2022-08-05T15:59:19.872Z,94993.38
2022-08-05T16:01:20.032Z,94996.88
2022-08-05T16:03:18.518Z,94996.81
2022-08-05T16:05:16.877Z,94997.31
2022-08-05T16:07:18.943Z,94998.38
2022-08-05T16:09:22.187Z,94996.63
2022-08-05T16:11:20.799Z,94998.28
2022-08-05T16:13:39.550Z,94997.69
2022-08-05T16:15:37.695Z,94993.88
2022-08-05T16:17:40.276Z,94999.28
2022-08-05T16:20:03.640Z,94994.38
2022-08-05T16:22:00.382Z,94996.56
2022-08-05T16:24:03.483Z,94988.66
2022-08-05T16:26:07.523Z,95000.31
2022-08-05T16:28:09.448Z,94997.00
2022-08-05T16:30:25.814Z,94999.16
2022-08-05T16:32:29.191Z,95000.75
2022-08-05T16:34:28.881Z,94995.34
2022-08-05T16:36:28.334Z,94991.47
2022-08-05T16:38:28.072Z,94995.25
2022-08-05T16:40:29.078Z,94999.59
2022-08-05T16:42:28.597Z,94996.31
2022-08-05T16:44:27.532Z,95004.16
2022-08-05T16:46:27.616Z,94999.19
2022-08-05T16:48:33.441Z,95000.81
2022-08-05T16:50:33.806Z,95006.44
2022-08-05T16:52:32.715Z,95015.56
2022-08-05T16:54:33.182Z,95010.09
2022-08-05T16:56:33.978Z,95010.59
2022-08-05T16:58:32.224Z,95012.19
2022-08-05T17:00:35.128Z,95013.28
2022-08-05T17:02:37.899Z,95004.53
2022-08-05T17:04:36.199Z,95006.84
2022-08-05T17:06:38.727Z,95005.13
2022-08-05T17:08:53.165Z,95007.25
2022-08-05T17:10:52.343Z,95006.94
2022-08-05T17:12:52.312Z,95020.91
2022-08-05T17:14:51.036Z,95015.19
2022-08-05T17:16:49.926Z,95015.41
2022-08-05T17:18:53.677Z,95016.50
2022-08-05T17:20:52.796Z,95018.06
2022-08-05T17:22:55.328Z,95025.88
2022-08-05T17:24:57.449Z,95026.31
2022-08-05T17:26:56.569Z,95024.84
2022-08-05T17:28:54.910Z,95032.31
2022-08-05T17:30:53.398Z,95027.41
2022-08-05T17:32:52.622Z,95030.50
2022-08-05T17:34:52.453Z,95033.59
2022-08-05T17:36:51.151Z,95030.22
2022-08-05T17:38:49.582Z,95034.34
2022-08-05T17:40:47.968Z,95031.78
2022-08-05T17:42:50.951Z,95035.25
2022-08-05T17:44:51.627Z,95036.06
2022-08-05T17:46:50.043Z,95035.47
2022-08-05T17:48:49.131Z,95029.41
2022-08-05T17:50:48.911Z,95026.03
2022-08-05T17:52:53.005Z,95035.03
2022-08-05T17:54:53.561Z,95035.34
2022-08-05T17:56:52.169Z,95034.75
2022-08-05T17:58:51.187Z,95035.72
2022-08-05T18:00:51.130Z,95044.34
2022-08-05T18:02:49.781Z,95039.06
2022-08-05T18:04:53.226Z,95037.06
2022-08-05T18:06:53.514Z,95043.81
2022-08-05T18:08:58.843Z,95046.25
2022-08-05T18:10:57.197Z,95050.84
2022-08-05T18:12:55.678Z,95050.50
2022-08-05T18:14:55.595Z,95044.50
2022-08-05T18:16:53.952Z,95061.28
2022-08-05T18:18:53.735Z,95053.78
2022-08-05T18:20:51.998Z,95063.41
2022-08-05T18:22:57.354Z,95064.94
2022-08-05T18:24:56.603Z,95063.31
2022-08-05T18:26:54.990Z,95066.50
2022-08-05T18:28:53.626Z,95069.19
2022-08-05T18:30:52.580Z,95068.03
2022-08-05T18:32:53.468Z,95066.41
2022-08-05T18:34:58.450Z,95074.84
2022-08-05T18:36:57.334Z,95063.78
2022-08-05T18:38:57.107Z,95070.41
2022-08-05T18:41:56.228Z,95074.88
2022-08-05T18:43:16.419Z,95067.13
2022-08-05T18:45:15.469Z,95071.97
2022-08-05T18:47:14.455Z,95077.38
2022-08-05T18:49:30.436Z,95079.81
2022-08-05T18:52:05.400Z,95079.00
2022-08-05T18:54:08.864Z,95085.34
2022-08-05T18:56:07.945Z,95081.84
2022-08-05T18:58:16.515Z,95088.91
2022-08-05T19:00:21.044Z,95092.41
2022-08-05T19:02:28.515Z,95080.31
2022-08-05T19:04:30.624Z,95089.19
2022-08-05T19:06:37.118Z,95082.25
2022-08-05T19:08:43.215Z,95089.03
2022-08-05T19:10:42.910Z,95084.56
2022-08-05T19:12:41.585Z,95092.75
2022-08-05T19:15:00.782Z,95090.84
2022-08-05T19:17:01.261Z,95085.00
2022-08-05T19:19:03.444Z,95088.03
2022-08-05T19:21:03.502Z,95084.22
2022-08-05T19:23:07.762Z,95082.75
2022-08-05T19:25:07.726Z,95082.03
2022-08-05T19:27:09.086Z,95079.75
2022-08-05T19:29:18.975Z,95082.88
2022-08-05T19:31:19.415Z,95084.38
2022-08-05T19:33:35.872Z,95077.06
2022-08-05T19:35:56.060Z,95078.34
2022-08-05T19:38:06.783Z,95083.19
2022-08-05T19:40:10.357Z,95082.00
2022-08-05T19:42:10.530Z,95080.91
2022-08-05T19:44:14.221Z,95089.41
2022-08-05T19:46:16.771Z,95088.81
2022-08-05T19:48:28.271Z,95079.03
2022-08-05T19:50:26.881Z,95085.72
2022-08-05T19:52:31.551Z,95086.16
2022-08-05T19:54:31.950Z,95082.72
2022-08-05T19:56:34.514Z,95082.81
2022-08-05T19:58:53.460Z,95087.72
2022-08-05T20:00:52.791Z,95086.38
2022-08-05T20:02:51.194Z,95087.84
2022-08-05T20:04:50.299Z,95089.94
2022-08-05T20:06:49.009Z,95089.78
2022-08-05T20:08:48.888Z,95093.59
2022-08-05T20:10:50.169Z,95091.91
2022-08-05T20:12:49.494Z,95080.66
2022-08-05T20:14:52.265Z,95088.44
2022-08-05T20:16:50.877Z,95085.16
2022-08-05T20:18:51.432Z,95084.41
2022-08-05T20:20:55.332Z,95079.66
2022-08-05T20:22:54.838Z,95081.84
2022-08-05T20:24:57.096Z,95079.41
2022-08-05T20:26:55.531Z,95078.84
2022-08-05T20:28:57.474Z,95083.06
2022-08-05T20:31:00.676Z,95080.41
2022-08-05T20:33:00.520Z,95087.69
2022-08-05T20:34:59.114Z,95088.97
2022-08-05T20:36:57.488Z,95090.00
2022-08-05T20:38:57.774Z,95082.41
2022-08-05T20:40:56.511Z,95087.06
2022-08-05T20:42:55.659Z,95093.06
2022-08-05T20:44:58.245Z,95088.19
2022-08-05T20:47:01.720Z,95091.78
2022-08-05T20:49:02.450Z,95084.75
2022-08-05T20:51:08.298Z,95082.47
2022-08-05T20:53:06.919Z,95072.34
2022-08-05T20:57:43.941Z,95083.38
2022-08-05T21:00:10.549Z,95076.34
2022-08-05T21:02:04.038Z,95080.09
2022-08-05T21:04:02.399Z,95082.16
2022-08-05T21:06:02.738Z,95083.66
2022-08-05T21:08:01.200Z,95081.38
2022-08-05T21:09:59.565Z,95081.75
2022-08-05T21:12:09.678Z,95078.69
2022-08-05T21:14:10.259Z,95078.78
2022-08-05T21:16:10.705Z,95076.13
2022-08-05T21:18:10.328Z,95084.56
2022-08-05T21:20:11.381Z,95079.63
2022-08-05T21:22:11.945Z,95084.00
2022-08-05T21:24:13.475Z,95076.38
2022-08-05T21:26:15.230Z,95083.34
2022-08-05T21:28:13.590Z,95079.41
2022-08-05T21:30:19.219Z,95087.81
2022-08-05T21:32:22.244Z,95083.22
2022-08-05T21:34:26.653Z,95081.13
2022-08-05T21:36:30.137Z,95082.16
2022-08-05T21:38:31.182Z,95085.06
2022-08-05T21:40:29.709Z,95083.03
2022-08-05T21:42:30.904Z,95090.91
2022-08-05T21:44:42.033Z,95090.91
2022-08-05T21:46:41.635Z,95084.41
2022-08-05T21:48:41.399Z,95093.94
2022-08-05T21:50:53.201Z,95092.94
2022-08-05T21:52:52.789Z,95091.13
2022-08-05T21:54:51.314Z,95090.69
2022-08-05T21:57:09.550Z,95092.34
2022-08-05T21:59:24.120Z,95093.63
2022-08-05T22:01:25.673Z,95095.66
2022-08-05T22:03:48.998Z,95091.53
2022-08-05T22:05:48.869Z,95092.59
2022-08-05T22:07:59.505Z,95093.63
2022-08-05T22:10:00.929Z,95083.53
2022-08-05T22:11:59.421Z,95090.31
2022-08-05T22:14:06.649Z,95098.16
2022-08-05T22:16:39.405Z,95088.91
2022-08-05T22:18:36.245Z,95089.31
2022-08-05T22:20:38.925Z,95088.91
2022-08-05T22:22:53.031Z,95088.28
2022-08-05T22:25:18.159Z,95093.44
2022-08-05T22:28:09.385Z,95088.50
2022-08-05T22:30:12.162Z,95088.09
2022-08-05T22:32:11.862Z,95082.50
2022-08-05T22:34:25.584Z,95079.63
2022-08-05T22:36:27.166Z,95087.03
2022-08-05T22:38:26.907Z,95081.91
2022-08-05T22:40:25.289Z,95084.59
2022-08-05T22:42:26.042Z,95078.63
2022-08-05T22:44:24.782Z,95077.38
2022-08-05T22:46:25.883Z,95076.53
2022-08-05T22:48:27.254Z,95071.41
2022-08-05T22:50:27.694Z,95076.53
2022-08-05T22:52:32.543Z,95080.44
2022-08-05T22:54:34.178Z,95081.69
2022-08-05T22:56:32.766Z,95089.53
2022-08-05T22:58:31.531Z,95084.38
2022-08-05T23:00:31.368Z,95089.31
2022-08-05T23:02:30.226Z,95086.81
2022-08-05T23:04:28.892Z,95081.66
2022-08-05T23:06:27.229Z,95081.84
2022-08-05T23:08:27.288Z,95070.72
2022-08-05T23:10:27.821Z,95071.75
2022-08-05T23:12:28.555Z,95075.47
2022-08-05T23:14:31.870Z,95075.06
2022-08-05T23:16:48.515Z,95086.16
2022-08-05T23:18:50.572Z,95073.78
2022-08-05T23:20:49.793Z,95083.47
2022-08-05T23:22:48.609Z,95087.41
2022-08-05T23:24:51.072Z,95083.50
2022-08-05T23:26:51.076Z,95078.31
2022-08-05T23:28:49.553Z,95073.81
2022-08-05T23:30:53.470Z,95085.09
2022-08-05T23:32:52.966Z,95077.91
2022-08-05T23:34:51.538Z,95075.63
2022-08-05T23:36:49.906Z,95083.03
2022-08-05T23:38:51.261Z,95076.63
2022-08-05T23:40:50.799Z,95071.47
2022-08-05T23:42:53.693Z,95079.28
2022-08-05T23:44:54.254Z,95075.38
2022-08-05T23:46:53.108Z,95079.72
2022-08-05T23:49:00.440Z,95082.16
2022-08-05T23:51:00.298Z,95084.03
2022-08-05T23:53:01.165Z,95082.78
2022-08-05T23:55:08.862Z,95075.38
2022-08-05T23:57:08.767Z,95082.34
2022-08-05T23:59:08.425Z,95078.13
